KBXA/BXA METAR and TAF weather

Enter ICAO airport designator
Station Type Date Time Source
KBXA METAR 2019/12/12 11:55 UTC NOAA

KBXA 121155Z AUTO 36006KT 10SM BKN033 03/01 A3035 RMK AO2 T00340008 10036 20025


Station Type Date Time Source
KBXA Decoded METAR 2019/12/12 11:55 UTC NOAA

Bogalusa, George R Carr Memorial Air Field, LA, United States (KBXA) 30-48-49N 089-51-53W
Dec 12, 2019 - 06:55 AM EST / 2019.12.12 1155 UTC
Wind: from the N (360 degrees) at 7 MPH (6 KT):0
Visibility: 10 mile(s):0
Sky conditions: mostly cloudy
Temperature: 38.1 F (3.4 C)
Dew Point: 33.4 F (0.8 C)
Relative Humidity: 83%
Pressure (altimeter): 30.35 in. Hg (1027 hPa)
ob: KBXA 121155Z AUTO 36006KT 10SM BKN033 03/01 A3035 RMK AO2 T00340008 10036 20025
cycle: 12

Station Type Date Time Source
KBXA TAF UTC NOAA

Error!

Example: see airport list